Georg Jacob — A8XG5 — position and weather

sailwx.info

Track history (hours):
 
Tides and Currents Weather Stations Pressure Air Temp Water Temp Dewpoint Dewpoint Depression Visibility Wind Speed Wind Dir Waves Ship Positions

Georg Jacob

Last reported at 2017-Sep-24 23:00 UTC. Time now 2017-Sep-24 23:20 UTC.
Position N 52°12' E 004°12'.

Length 229 m; draft 8.5 m.

Type: Ship. MMSI: 636092136.

Date/timePositionNaut miles runAvg speedWind from/ knotsBaromVisibWave heightAir tempDewpointWater temp
2017-Sep-24 23:00N 52°12' E 004°12'0 0.0
2017-Sep-24 22:30N 52°12' E 004°12'0 0.1
2017-Sep-24 22:00N 52°12' E 004°12'0 0.1
2017-Sep-24 21:30N 52°12' E 004°12'0 0.3
2017-Sep-24 21:00N 52°12' E 004°13'0 0.1
2017-Sep-24 20:30N 52°12' E 004°13'0 0.0
2017-Sep-24 20:00N 52°12' E 004°13'0 0.1
2017-Sep-24 19:30N 52°12' E 004°13'0 0.0
2017-Sep-24 19:00N 52°12' E 004°13'0 0.0
2017-Sep-24 18:30N 52°12' E 004°13'0 0.0
2017-Sep-24 18:00N 52°12' E 004°13'0 0.0
2017-Sep-24 17:30N 52°12' E 004°12'0 0.0
2017-Sep-24 17:00N 52°12' E 004°12'0 0.0
2017-Sep-24 16:30N 52°12' E 004°12'0 0.0
2017-Sep-24 16:00N 52°12' E 004°12'0 0.1
2017-Sep-24 15:30N 52°12' E 004°12'0 0.1
2017-Sep-24 15:00N 52°12' E 004°12'0 0.2
2017-Sep-24 14:30N 52°12' E 004°12'0 0.1
2017-Sep-24 14:00N 52°12' E 004°12'0 0.1
2017-Sep-24 13:30N 52°12' E 004°12'0 0.1
2017-Sep-24 13:00N 52°12' E 004°12'0 0.0
2017-Sep-24 12:30N 52°12' E 004°12'0 0.0
2017-Sep-24 12:00N 52°12' E 004°12'0 0.0
2017-Sep-24 11:30N 52°12' E 004°12'0 0.0
2017-Sep-24 11:00N 52°12' E 004°12'0 0.1
2017-Sep-24 10:30N 52°12' E 004°12'0 0.1
2017-Sep-24 10:00N 52°12' E 004°12'0 0.1
2017-Sep-24 09:27N 52°12' E 004°12'0 0.1
2017-Sep-24 09:00N 52°12' E 004°12'0 0.1
2017-Sep-24 08:30N 52°12' E 004°13'0 0.2
2017-Sep-24 08:00N 52°12' E 004°13'0 0.0
2017-Sep-24 07:30N 52°12' E 004°13'0 0.1
2017-Sep-24 07:00N 52°12' E 004°13'0 0.0
2017-Sep-24 06:30N 52°12' E 004°12'0 0.0
2017-Sep-24 06:00N 52°12' E 004°12'0 0.1
2017-Sep-24 05:30N 52°12' E 004°12'3 5.8
2017-Sep-24 05:00N 52°14' E 004°09'510.2
2017-Sep-24 04:30N 52°16' E 004°02'4 8.9
2017-Sep-24 04:00N 52°20' E 003°57'5 9.0
2017-Sep-24 03:30N 52°23' E 003°53'510.4
2017-Sep-24 03:00N 52°23' E 003°44'611.2
2017-Sep-24 02:30N 52°20' E 003°37'510.8
2017-Sep-24 02:00N 52°17' E 003°29'510.5
2017-Sep-24 01:30N 52°14' E 003°22'510.2
2017-Sep-24 01:00N 52°11' E 003°15'5 9.9
2017-Sep-24 00:30N 52°08' E 003°09'5 9.6
2017-Sep-23 23:58N 52°04' E 003°03'5 9.5
2017-Sep-23 23:29N 52°01' E 002°58'4 9.3
2017-Sep-23 23:00N 51°58' E 002°53'5 9.1
2017-Sep-23 22:29N 51°54' E 002°48'4 9.0
2017-Sep-23 22:00N 51°51' E 002°43'4 9.0
2017-Sep-23 21:30N 51°47' E 002°38'5 9.1
2017-Sep-23 20:57N 51°44' E 002°33'4 9.5
2017-Sep-23 20:30N 51°40' E 002°29'5 9.9
2017-Sep-23 20:00N 51°37' E 002°23'155 3.7
2017-Sep-22 01:58N 49°28' E 000°08'0 0.0
2017-Sep-22 01:28N 49°28' E 000°08'0 0.0
2017-Sep-22 00:58N 49°28' E 000°08'0 0.0
2017-Sep-22 00:28N 49°28' E 000°08'0 0.0
2017-Sep-21 23:58N 49°28' E 000°08'0 0.0
2017-Sep-21 23:28N 49°28' E 000°08'0 0.0
2017-Sep-21 22:58N 49°28' E 000°08'0 0.0
2017-Sep-21 22:28N 49°28' E 000°08'0 0.0
2017-Sep-21 21:58N 49°28' E 000°08'0 0.0
2017-Sep-21 21:28N 49°28' E 000°08'0 0.0
2017-Sep-21 20:58N 49°28' E 000°08'0 0.0
2017-Sep-21 20:28N 49°28' E 000°08'0 0.0
2017-Sep-21 19:58N 49°28' E 000°08'0 0.0
2017-Sep-21 19:28N 49°28' E 000°08'0 0.0
2017-Sep-21 18:58N 49°28' E 000°08'0 0.0
2017-Sep-21 18:28N 49°28' E 000°08'0 0.0
2017-Sep-21 17:58N 49°28' E 000°08'0 0.0
2017-Sep-21 17:28N 49°28' E 000°08'0 0.0
2017-Sep-21 16:58N 49°28' E 000°08'0 0.0
2017-Sep-21 16:28N 49°28' E 000°08'0 0.0
2017-Sep-21 15:58N 49°28' E 000°08'0 0.0
2017-Sep-21 15:28N 49°28' E 000°08'0 0.0
2017-Sep-21 14:58N 49°28' E 000°08'0 0.0
2017-Sep-21 14:28N 49°28' E 000°08'0 0.0
2017-Sep-21 13:58N 49°28' E 000°08'0 0.0
2017-Sep-21 13:28N 49°28' E 000°08'0 0.0
2017-Sep-21 12:58N 49°28' E 000°08'0 0.0
2017-Sep-21 12:28N 49°28' E 000°08'0 0.0
2017-Sep-21 11:58N 49°28' E 000°08'0 0.0
2017-Sep-21 11:28N 49°28' E 000°08'0 0.0
2017-Sep-21 10:58N 49°28' E 000°08'0 0.0
2017-Sep-21 10:28N 49°28' E 000°08'0 0.0
2017-Sep-21 09:58N 49°28' E 000°08'0 0.0
2017-Sep-21 09:28N 49°28' E 000°08'0 0.0
2017-Sep-21 08:58N 49°28' E 000°08'0 0.0
2017-Sep-21 08:28N 49°28' E 000°08'0 0.0
2017-Sep-21 07:58N 49°28' E 000°08'0 0.0
2017-Sep-21 07:28N 49°28' E 000°08'0 0.0
2017-Sep-21 06:58N 49°28' E 000°08'0 0.0
2017-Sep-21 06:28N 49°28' E 000°08'0 0.0
2017-Sep-21 05:58N 49°28' E 000°08'0 0.0
2017-Sep-21 05:28N 49°28' E 000°08'0 0.0
2017-Sep-21 04:58N 49°28' E 000°08'0 0.0
2017-Sep-21 04:28N 49°28' E 000°08'0 0.0
2017-Sep-21 03:58N 49°28' E 000°08'0 0.0
2017-Sep-21 03:28N 49°28' E 000°08'0 0.0
2017-Sep-21 02:58N 49°28' E 000°08'0 0.0
2017-Sep-21 02:28N 49°28' E 000°08'0 0.0
2017-Sep-21 01:58N 49°28' E 000°08'0 0.0
2017-Sep-21 01:28N 49°28' E 000°08'0 0.0
2017-Sep-21 00:58N 49°28' E 000°08'0 0.0
2017-Sep-21 00:28N 49°28' E 000°08'0 0.0
2017-Sep-20 23:58N 49°28' E 000°08'0 0.0
2017-Sep-20 23:28N 49°28' E 000°08'0 0.0
2017-Sep-20 22:58N 49°28' E 000°08'0 0.0
2017-Sep-20 22:28N 49°28' E 000°08'0 0.0
2017-Sep-20 21:58N 49°28' E 000°08'0 0.0
2017-Sep-20 21:28N 49°28' E 000°08'0 0.0
2017-Sep-20 20:58N 49°28' E 000°08'0 0.0
2017-Sep-20 20:28N 49°28' E 000°08'0 0.0
2017-Sep-20 19:58N 49°28' E 000°08'0 0.0
2017-Sep-20 19:28N 49°28' E 000°08'0 0.0
2017-Sep-20 18:58N 49°28' E 000°08'0 0.0
2017-Sep-20 18:28N 49°28' E 000°08'0 0.0
2017-Sep-20 17:58N 49°28' E 000°08'0 0.0
2017-Sep-20 17:28N 49°28' E 000°08'0 0.0
2017-Sep-20 16:58N 49°28' E 000°08'0 0.0
2017-Sep-20 16:28N 49°28' E 000°08'0 0.0
2017-Sep-20 15:58N 49°28' E 000°08'0 0.0
2017-Sep-20 15:28N 49°28' E 000°08'0 0.0
2017-Sep-20 14:58N 49°28' E 000°08'0 0.0
2017-Sep-20 13:58N 49°28' E 000°08'0 0.0
2017-Sep-20 13:28N 49°28' E 000°08'0 0.0
2017-Sep-20 12:58N 49°28' E 000°08'0 0.0
2017-Sep-20 12:28N 49°28' E 000°08'0 0.0
2017-Sep-20 11:58N 49°28' E 000°08'0 0.0
2017-Sep-20 11:28N 49°28' E 000°08'0 0.0
2017-Sep-20 10:58N 49°28' E 000°08'0 0.0
2017-Sep-20 10:28N 49°28' E 000°08'0 0.0
2017-Sep-20 09:58N 49°28' E 000°08'0 0.6
2017-Sep-20 09:30N 49°28' E 000°08'1 2.0
2017-Sep-20 09:00N 49°29' E 000°06'4 8.4
2017-Sep-20 08:30N 49°30' E 000°00'510.8
2017-Sep-20 08:01N 49°32' W 000°08'4 8.3
2017-Sep-20 07:31N 49°34' W 000°14'3 5.6
2017-Sep-20 07:00N 49°35' W 000°18'611.7
2017-Sep-20 06:31N 49°38' W 000°25'1714.4
2017-Sep-20 05:21N 49°46' W 000°48'513.4
2017-Sep-20 05:00N 49°48' W 000°54'612.8
2017-Sep-20 04:30N 49°52' W 001°02'611.7
2017-Sep-20 04:00N 49°55' W 001°10'510.6
2017-Sep-20 03:30N 49°57' W 001°17'510.0
2017-Sep-20 03:01N 49°58' W 001°25'5 9.3
2017-Sep-20 02:31N 49°58' W 001°32'4 8.9
2017-Sep-20 02:00N 49°58' W 001°39'4 8.8
2017-Sep-20 01:30N 49°58' W 001°46'4 8.7
2017-Sep-20 01:00N 49°57' W 001°53'4 8.7
2017-Sep-20 00:30N 49°57' W 001°59'5 9.4
2017-Sep-20 00:00N 49°55' W 002°06'1311.4
2017-Sep-19 22:53N 49°52' W 002°26'612.7
2017-Sep-19 22:26N 49°50' W 002°34'512.8
2017-Sep-19 22:00N 49°49' W 002°42'713.1
2017-Sep-19 21:30N 49°47' W 002°52'813.3
2017-Sep-19 20:54N 49°45' W 003°04'513.5
2017-Sep-19 20:30N 49°43' W 003°12'713.6
2017-Sep-19 20:00N 49°40' W 003°21'713.8
2017-Sep-19 19:30N 49°36' W 003°30'713.9
2017-Sep-19 19:01N 49°33' W 003°39'714.0
2017-Sep-19 18:30N 49°29' W 003°49'714.3
2017-Sep-19 18:00N 49°26' W 003°58'814.6
2017-Sep-19 17:26N 49°21' W 004°09'714.9
2017-Sep-19 17:00N 49°18' W 004°18'715.0
2017-Sep-19 16:30N 49°14' W 004°27'815.1
2017-Sep-19 16:00N 49°10' W 004°37'815.2
2017-Sep-19 15:27N 49°06' W 004°48'715.0
2017-Sep-19 15:00N 49°03' W 004°57'815.0
2017-Sep-19 14:30N 48°59' W 005°07'714.6
2017-Sep-19 14:00N 48°56' W 005°17'714.4
2017-Sep-19 13:30N 48°52' W 005°27'612.7
2017-Sep-19 13:00N 48°49' W 005°35'2 4.7
2017-Sep-19 12:29N 48°48' W 005°38'1 1.9
2017-Sep-19 11:59N 48°48' W 005°40'59211.6
2017-Sep-17 08:44N 39°25' W 009°56'312.5
2017-Sep-17 08:30N 39°22' W 009°56'612.6
2017-Sep-17 08:00N 39°16' W 009°56'612.4
2017-Sep-17 07:30N 39°10' W 009°55'612.0
2017-Sep-17 07:00N 39°04' W 009°57'612.1
2017-Sep-17 06:30N 38°58' W 009°57'612.5
2017-Sep-17 06:00N 38°52' W 009°57'612.3
2017-Sep-17 05:30N 38°45' W 009°57'611.8
2017-Sep-17 05:00N 38°40' W 009°56'612.3
2017-Sep-17 04:30N 38°34' W 009°54'612.2
2017-Sep-17 04:00N 38°28' W 009°52'612.1
2017-Sep-17 03:30N 38°22' W 009°51'612.4
2017-Sep-17 03:00N 38°16' W 009°49'612.3
2017-Sep-17 02:30N 38°10' W 009°47'612.2
2017-Sep-17 02:00N 38°04' W 009°45'612.1
2017-Sep-17 01:30N 37°58' W 009°43'1011.6
2017-Sep-17 00:40N 37°48' W 009°41'1211.4
2017-Sep-16 23:35N 37°36' W 009°37'111.5
2017-Sep-16 23:30N 37°36' W 009°37'911.4
2017-Sep-16 22:41N 37°26' W 009°34'611.4
2017-Sep-16 22:12N 37°21' W 009°33'1411.4
2017-Sep-16 21:01N 37°08' W 009°29'111.4
2017-Sep-16 20:56N 37°07' W 009°29'1811.3
2017-Sep-16 19:22N 36°50' W 009°23'411.3
2017-Sep-16 19:00N 36°47' W 009°19'811.3
2017-Sep-16 18:17N 36°41' W 009°12'311.2
2017-Sep-16 18:00N 36°40' W 009°09'611.4
2017-Sep-16 17:30N 36°38' W 009°02'611.6
2017-Sep-16 17:00N 36°37' W 008°55'611.6
2017-Sep-16 16:30N 36°36' W 008°48'1011.7
2017-Sep-16 15:40N 36°33' W 008°36'211.8
2017-Sep-16 15:30N 36°33' W 008°34'1311.8
2017-Sep-16 14:23N 36°30' W 008°18'712.0
2017-Sep-16 13:47N 36°29' W 008°09'311.9
2017-Sep-16 13:30N 36°28' W 008°05'611.8
2017-Sep-16 13:00N 36°27' W 007°58'612.0
2017-Sep-16 12:30N 36°26' W 007°50'11012.3
2017-Sep-16 03:32N 35°57' W 005°38'1 9.0
2017-Sep-16 03:23N 35°57' W 005°37'3 8.9
2017-Sep-16 03:00N 35°58' W 005°33'4 8.9
2017-Sep-16 02:30N 35°60' W 005°28'5 9.6
2017-Sep-16 02:00N 36°01' W 005°22'510.2
2017-Sep-16 01:30N 36°02' W 005°16'510.7
2017-Sep-16 01:00N 36°02' W 005°09'25611.5
2017-Sep-15 02:47N 36°36' E 000°06'512.9
2017-Sep-15 02:23N 36°37' E 000°12'512.8
2017-Sep-15 02:00N 36°38' E 000°18'912.6
2017-Sep-15 01:19N 36°41' E 000°28'412.6
2017-Sep-15 01:00N 36°42' E 000°33'612.6
2017-Sep-15 00:30N 36°44' E 000°40'612.5
2017-Sep-15 00:00N 36°45' E 000°48'612.9
2017-Sep-14 23:30N 36°46' E 000°56'713.3
2017-Sep-14 23:00N 36°47' E 001°04'  
Track history (hours):
 
Tides and Currents Weather Stations Pressure Air Temp Water Temp Dewpoint Dewpoint Depression Visibility Wind Speed Wind Dir Waves Ship Positions

Georg Jacob

Last reported at 2017-Sep-24 23:00 UTC. Time now 2017-Sep-24 23:20 UTC.
Position N 52°12' E 004°12'.

Length 229 m; draft 8.5 m.

Type: Ship. MMSI: 636092136.

Date/timePositionNaut miles runAvg speedWind from/ knotsBaromVisibWave heightAir tempDewpointWater temp
2017-Sep-24 23:00N 52°12' E 004°12'0 0.0
2017-Sep-24 22:30N 52°12' E 004°12'0 0.1
2017-Sep-24 22:00N 52°12' E 004°12'0 0.1
2017-Sep-24 21:30N 52°12' E 004°12'0 0.3
2017-Sep-24 21:00N 52°12' E 004°13'0 0.1
2017-Sep-24 20:30N 52°12' E 004°13'0 0.0
2017-Sep-24 20:00N 52°12' E 004°13'0 0.1
2017-Sep-24 19:30N 52°12' E 004°13'0 0.0
2017-Sep-24 19:00N 52°12' E 004°13'0 0.0
2017-Sep-24 18:30N 52°12' E 004°13'0 0.0
2017-Sep-24 18:00N 52°12' E 004°13'0 0.0
2017-Sep-24 17:30N 52°12' E 004°12'0 0.0
2017-Sep-24 17:00N 52°12' E 004°12'0 0.0
2017-Sep-24 16:30N 52°12' E 004°12'0 0.0
2017-Sep-24 16:00N 52°12' E 004°12'0 0.1
2017-Sep-24 15:30N 52°12' E 004°12'0 0.1
2017-Sep-24 15:00N 52°12' E 004°12'0 0.2
2017-Sep-24 14:30N 52°12' E 004°12'0 0.1
2017-Sep-24 14:00N 52°12' E 004°12'0 0.1
2017-Sep-24 13:30N 52°12' E 004°12'0 0.1
2017-Sep-24 13:00N 52°12' E 004°12'0 0.0
2017-Sep-24 12:30N 52°12' E 004°12'0 0.0
2017-Sep-24 12:00N 52°12' E 004°12'0 0.0
2017-Sep-24 11:30N 52°12' E 004°12'0 0.0
2017-Sep-24 11:00N 52°12' E 004°12'0 0.1
2017-Sep-24 10:30N 52°12' E 004°12'0 0.1
2017-Sep-24 10:00N 52°12' E 004°12'0 0.1
2017-Sep-24 09:27N 52°12' E 004°12'0 0.1
2017-Sep-24 09:00N 52°12' E 004°12'0 0.1
2017-Sep-24 08:30N 52°12' E 004°13'0 0.2
2017-Sep-24 08:00N 52°12' E 004°13'0 0.0
2017-Sep-24 07:30N 52°12' E 004°13'0 0.1
2017-Sep-24 07:00N 52°12' E 004°13'0 0.0
2017-Sep-24 06:30N 52°12' E 004°12'0 0.0
2017-Sep-24 06:00N 52°12' E 004°12'0 0.1
2017-Sep-24 05:30N 52°12' E 004°12'3 5.8
2017-Sep-24 05:00N 52°14' E 004°09'510.2
2017-Sep-24 04:30N 52°16' E 004°02'4 8.9
2017-Sep-24 04:00N 52°20' E 003°57'5 9.0
2017-Sep-24 03:30N 52°23' E 003°53'510.4
2017-Sep-24 03:00N 52°23' E 003°44'611.2
2017-Sep-24 02:30N 52°20' E 003°37'510.8
2017-Sep-24 02:00N 52°17' E 003°29'510.5
2017-Sep-24 01:30N 52°14' E 003°22'510.2
2017-Sep-24 01:00N 52°11' E 003°15'5 9.9
2017-Sep-24 00:30N 52°08' E 003°09'5 9.6
2017-Sep-23 23:58N 52°04' E 003°03'5 9.5
2017-Sep-23 23:29N 52°01' E 002°58'4 9.3
2017-Sep-23 23:00N 51°58' E 002°53'5 9.1
2017-Sep-23 22:29N 51°54' E 002°48'4 9.0
2017-Sep-23 22:00N 51°51' E 002°43'4 9.0
2017-Sep-23 21:30N 51°47' E 002°38'5 9.1
2017-Sep-23 20:57N 51°44' E 002°33'4 9.5
2017-Sep-23 20:30N 51°40' E 002°29'5 9.9
2017-Sep-23 20:00N 51°37' E 002°23'155 3.7
2017-Sep-22 01:58N 49°28' E 000°08'0 0.0
2017-Sep-22 01:28N 49°28' E 000°08'0 0.0
2017-Sep-22 00:58N 49°28' E 000°08'0 0.0
2017-Sep-22 00:28N 49°28' E 000°08'0 0.0
2017-Sep-21 23:58N 49°28' E 000°08'0 0.0
2017-Sep-21 23:28N 49°28' E 000°08'0 0.0
2017-Sep-21 22:58N 49°28' E 000°08'0 0.0
2017-Sep-21 22:28N 49°28' E 000°08'0 0.0
2017-Sep-21 21:58N 49°28' E 000°08'0 0.0
2017-Sep-21 21:28N 49°28' E 000°08'0 0.0
2017-Sep-21 20:58N 49°28' E 000°08'0 0.0
2017-Sep-21 20:28N 49°28' E 000°08'0 0.0
2017-Sep-21 19:58N 49°28' E 000°08'0 0.0
2017-Sep-21 19:28N 49°28' E 000°08'0 0.0
2017-Sep-21 18:58N 49°28' E 000°08'0 0.0
2017-Sep-21 18:28N 49°28' E 000°08'0 0.0
2017-Sep-21 17:58N 49°28' E 000°08'0 0.0
2017-Sep-21 17:28N 49°28' E 000°08'0 0.0
2017-Sep-21 16:58N 49°28' E 000°08'0 0.0
2017-Sep-21 16:28N 49°28' E 000°08'0 0.0
2017-Sep-21 15:58N 49°28' E 000°08'0 0.0
2017-Sep-21 15:28N 49°28' E 000°08'0 0.0
2017-Sep-21 14:58N 49°28' E 000°08'0 0.0
2017-Sep-21 14:28N 49°28' E 000°08'0 0.0
2017-Sep-21 13:58N 49°28' E 000°08'0 0.0
2017-Sep-21 13:28N 49°28' E 000°08'0 0.0
2017-Sep-21 12:58N 49°28' E 000°08'0 0.0
2017-Sep-21 12:28N 49°28' E 000°08'0 0.0
2017-Sep-21 11:58N 49°28' E 000°08'0 0.0
2017-Sep-21 11:28N 49°28' E 000°08'0 0.0
2017-Sep-21 10:58N 49°28' E 000°08'0 0.0
2017-Sep-21 10:28N 49°28' E 000°08'0 0.0
2017-Sep-21 09:58N 49°28' E 000°08'0 0.0
2017-Sep-21 09:28N 49°28' E 000°08'0 0.0
2017-Sep-21 08:58N 49°28' E 000°08'0 0.0
2017-Sep-21 08:28N 49°28' E 000°08'0 0.0
2017-Sep-21 07:58N 49°28' E 000°08'0 0.0
2017-Sep-21 07:28N 49°28' E 000°08'0 0.0
2017-Sep-21 06:58N 49°28' E 000°08'0 0.0
2017-Sep-21 06:28N 49°28' E 000°08'0 0.0
2017-Sep-21 05:58N 49°28' E 000°08'0 0.0
2017-Sep-21 05:28N 49°28' E 000°08'0 0.0
2017-Sep-21 04:58N 49°28' E 000°08'0 0.0
2017-Sep-21 04:28N 49°28' E 000°08'0 0.0
2017-Sep-21 03:58N 49°28' E 000°08'0 0.0
2017-Sep-21 03:28N 49°28' E 000°08'0 0.0
2017-Sep-21 02:58N 49°28' E 000°08'0 0.0
2017-Sep-21 02:28N 49°28' E 000°08'0 0.0
2017-Sep-21 01:58N 49°28' E 000°08'0 0.0
2017-Sep-21 01:28N 49°28' E 000°08'0 0.0
2017-Sep-21 00:58N 49°28' E 000°08'0 0.0
2017-Sep-21 00:28N 49°28' E 000°08'0 0.0
2017-Sep-20 23:58N 49°28' E 000°08'0 0.0
2017-Sep-20 23:28N 49°28' E 000°08'0 0.0
2017-Sep-20 22:58N 49°28' E 000°08'0 0.0
2017-Sep-20 22:28N 49°28' E 000°08'0 0.0
2017-Sep-20 21:58N 49°28' E 000°08'0 0.0
2017-Sep-20 21:28N 49°28' E 000°08'0 0.0
2017-Sep-20 20:58N 49°28' E 000°08'0 0.0
2017-Sep-20 20:28N 49°28' E 000°08'0 0.0
2017-Sep-20 19:58N 49°28' E 000°08'0 0.0
2017-Sep-20 19:28N 49°28' E 000°08'0 0.0
2017-Sep-20 18:58N 49°28' E 000°08'0 0.0
2017-Sep-20 18:28N 49°28' E 000°08'0 0.0
2017-Sep-20 17:58N 49°28' E 000°08'0 0.0
2017-Sep-20 17:28N 49°28' E 000°08'0 0.0
2017-Sep-20 16:58N 49°28' E 000°08'0 0.0
2017-Sep-20 16:28N 49°28' E 000°08'0 0.0
2017-Sep-20 15:58N 49°28' E 000°08'0 0.0
2017-Sep-20 15:28N 49°28' E 000°08'0 0.0
2017-Sep-20 14:58N 49°28' E 000°08'0 0.0
2017-Sep-20 13:58N 49°28' E 000°08'0 0.0
2017-Sep-20 13:28N 49°28' E 000°08'0 0.0
2017-Sep-20 12:58N 49°28' E 000°08'0 0.0
2017-Sep-20 12:28N 49°28' E 000°08'0 0.0
2017-Sep-20 11:58N 49°28' E 000°08'0 0.0
2017-Sep-20 11:28N 49°28' E 000°08'0 0.0
2017-Sep-20 10:58N 49°28' E 000°08'0 0.0
2017-Sep-20 10:28N 49°28' E 000°08'0 0.0
2017-Sep-20 09:58N 49°28' E 000°08'0 0.6
2017-Sep-20 09:30N 49°28' E 000°08'1 2.0
2017-Sep-20 09:00N 49°29' E 000°06'4 8.4
2017-Sep-20 08:30N 49°30' E 000°00'510.8
2017-Sep-20 08:01N 49°32' W 000°08'4 8.3
2017-Sep-20 07:31N 49°34' W 000°14'3 5.6
2017-Sep-20 07:00N 49°35' W 000°18'611.7
2017-Sep-20 06:31N 49°38' W 000°25'1714.4
2017-Sep-20 05:21N 49°46' W 000°48'513.4
2017-Sep-20 05:00N 49°48' W 000°54'612.8
2017-Sep-20 04:30N 49°52' W 001°02'611.7
2017-Sep-20 04:00N 49°55' W 001°10'510.6
2017-Sep-20 03:30N 49°57' W 001°17'510.0
2017-Sep-20 03:01N 49°58' W 001°25'5 9.3
2017-Sep-20 02:31N 49°58' W 001°32'4 8.9
2017-Sep-20 02:00N 49°58' W 001°39'4 8.8
2017-Sep-20 01:30N 49°58' W 001°46'4 8.7
2017-Sep-20 01:00N 49°57' W 001°53'4 8.7
2017-Sep-20 00:30N 49°57' W 001°59'5 9.4
2017-Sep-20 00:00N 49°55' W 002°06'1311.4
2017-Sep-19 22:53N 49°52' W 002°26'612.7
2017-Sep-19 22:26N 49°50' W 002°34'512.8
2017-Sep-19 22:00N 49°49' W 002°42'713.1
2017-Sep-19 21:30N 49°47' W 002°52'813.3
2017-Sep-19 20:54N 49°45' W 003°04'513.5
2017-Sep-19 20:30N 49°43' W 003°12'713.6
2017-Sep-19 20:00N 49°40' W 003°21'713.8
2017-Sep-19 19:30N 49°36' W 003°30'713.9
2017-Sep-19 19:01N 49°33' W 003°39'714.0
2017-Sep-19 18:30N 49°29' W 003°49'714.3
2017-Sep-19 18:00N 49°26' W 003°58'814.6
2017-Sep-19 17:26N 49°21' W 004°09'714.9
2017-Sep-19 17:00N 49°18' W 004°18'715.0
2017-Sep-19 16:30N 49°14' W 004°27'815.1
2017-Sep-19 16:00N 49°10' W 004°37'815.2
2017-Sep-19 15:27N 49°06' W 004°48'715.0
2017-Sep-19 15:00N 49°03' W 004°57'815.0
2017-Sep-19 14:30N 48°59' W 005°07'714.6
2017-Sep-19 14:00N 48°56' W 005°17'714.4
2017-Sep-19 13:30N 48°52' W 005°27'612.7
2017-Sep-19 13:00N 48°49' W 005°35'2 4.7
2017-Sep-19 12:29N 48°48' W 005°38'1 1.9
2017-Sep-19 11:59N 48°48' W 005°40'59211.6
2017-Sep-17 08:44N 39°25' W 009°56'312.5
2017-Sep-17 08:30N 39°22' W 009°56'612.6
2017-Sep-17 08:00N 39°16' W 009°56'612.4
2017-Sep-17 07:30N 39°10' W 009°55'612.0
2017-Sep-17 07:00N 39°04' W 009°57'612.1
2017-Sep-17 06:30N 38°58' W 009°57'612.5
2017-Sep-17 06:00N 38°52' W 009°57'612.3
2017-Sep-17 05:30N 38°45' W 009°57'611.8
2017-Sep-17 05:00N 38°40' W 009°56'612.3
2017-Sep-17 04:30N 38°34' W 009°54'612.2
2017-Sep-17 04:00N 38°28' W 009°52'612.1
2017-Sep-17 03:30N 38°22' W 009°51'612.4
2017-Sep-17 03:00N 38°16' W 009°49'612.3
2017-Sep-17 02:30N 38°10' W 009°47'612.2
2017-Sep-17 02:00N 38°04' W 009°45'612.1
2017-Sep-17 01:30N 37°58' W 009°43'1011.6
2017-Sep-17 00:40N 37°48' W 009°41'1211.4
2017-Sep-16 23:35N 37°36' W 009°37'111.5
2017-Sep-16 23:30N 37°36' W 009°37'911.4
2017-Sep-16 22:41N 37°26' W 009°34'611.4
2017-Sep-16 22:12N 37°21' W 009°33'1411.4
2017-Sep-16 21:01N 37°08' W 009°29'111.4
2017-Sep-16 20:56N 37°07' W 009°29'1811.3
2017-Sep-16 19:22N 36°50' W 009°23'411.3
2017-Sep-16 19:00N 36°47' W 009°19'811.3
2017-Sep-16 18:17N 36°41' W 009°12'311.2
2017-Sep-16 18:00N 36°40' W 009°09'611.4
2017-Sep-16 17:30N 36°38' W 009°02'611.6
2017-Sep-16 17:00N 36°37' W 008°55'611.6
2017-Sep-16 16:30N 36°36' W 008°48'1011.7
2017-Sep-16 15:40N 36°33' W 008°36'211.8
2017-Sep-16 15:30N 36°33' W 008°34'1311.8
2017-Sep-16 14:23N 36°30' W 008°18'712.0
2017-Sep-16 13:47N 36°29' W 008°09'311.9
2017-Sep-16 13:30N 36°28' W 008°05'611.8
2017-Sep-16 13:00N 36°27' W 007°58'612.0
2017-Sep-16 12:30N 36°26' W 007°50'11012.3
2017-Sep-16 03:32N 35°57' W 005°38'1 9.0
2017-Sep-16 03:23N 35°57' W 005°37'3 8.9
2017-Sep-16 03:00N 35°58' W 005°33'4 8.9
2017-Sep-16 02:30N 35°60' W 005°28'5 9.6
2017-Sep-16 02:00N 36°01' W 005°22'510.2
2017-Sep-16 01:30N 36°02' W 005°16'510.7
2017-Sep-16 01:00N 36°02' W 005°09'25611.5
2017-Sep-15 02:47N 36°36' E 000°06'512.9
2017-Sep-15 02:23N 36°37' E 000°12'512.8
2017-Sep-15 02:00N 36°38' E 000°18'912.6
2017-Sep-15 01:19N 36°41' E 000°28'412.6
2017-Sep-15 01:00N 36°42' E 000°33'612.6
2017-Sep-15 00:30N 36°44' E 000°40'612.5
2017-Sep-15 00:00N 36°45' E 000°48'612.9
2017-Sep-14 23:30N 36°46' E 000°56'713.3
2017-Sep-14 23:00N 36°47' E 001°04'  

Dump ship's entire track history